Rachel, Nevada Weather observations

Data are for observation ending at time listed.
 Day   Time    Ave.   Ave.  Ave.  Vector   Max.   Stn.    Total    Solar   Ave.  
  of    of     Air    Rel.  Wind   Wind    Wind   Baro.  Precip.   Rad.    Soil  
Year   Day     Temp.  Hum.  Speed  Dir.    Gust   Pres.                    Temp. 
2015   (PST)    F      %     mph   deg.    mph     mb.     in.     W/m2     F   
------------------------------------------------------------------------------
 239    9:30   78.9    37    3.1    10      6.2   859.6    0.00     524    82.6
 239    9:40   80.0    35    2.8    25      6.1   859.6    0.00     541    82.5
 239    9:50   81.5    34    3.4    28      7.0   859.8    0.00     557    82.1
 239   10:00   81.4    34    3.7    88      7.2   859.6    0.00     569    82.0
 239   10:10   82.4    32    2.4   147      5.2   859.9    0.00     583    82.0
 239   10:20   82.7    32    4.6    10      9.6   859.9    0.00     596    82.1
 239   10:30   82.7    32    3.4   338      6.4   859.2    0.00     604    82.1
 239   10:40   84.1    30    1.7   308      4.0   859.4    0.00     616    82.2
 239   10:50   85.5    29    2.8   213      6.1   859.2    0.00     624    82.8
 239   11:00   86.0    27    2.6   306      6.8   860.1    0.00     635    83.2
 239   11:10   87.4    23    3.9   276      8.9   860.1    0.00     645    83.6
 239   11:20   87.5    21    5.2   311     10.7   860.0    0.00     677    83.9
 239   11:30   87.2    22    2.5   284      7.3   859.9    0.00     509    84.0
 239   11:40   87.6    23    4.8   240      8.8   859.5    0.00     387    84.1
 239   11:50   86.5    24    3.9   234      8.3   859.2    0.00     191    84.1
 239   12:00   86.2    24    4.8   271      9.3   859.0    0.00     181    83.9
 239   12:10   86.6    24    2.8   223      7.1   858.8    0.00     438    83.9
 239   12:20   87.6    22    3.1   342      6.4   858.8    0.00     706    84.1
 239   12:30   88.9    22    5.9   237      8.8   858.8    0.00     721    84.5
 239   12:40   88.3    23    4.6   321      8.7   858.8    0.00     484    84.7
 239   12:50   88.5    23    5.1   164     11.3   858.9    0.00     574    84.9
 239   13:00   88.4    24    7.9   180     13.2   858.6    0.00     533    85.3
 239   13:10   87.9    23    9.4   197     14.8   858.8    0.00     241    85.6
 239   13:20   88.6    20   10.0   228     17.0   858.7    0.00     569    85.5
 239   13:30   89.9    19    8.6   232     13.4   858.6    0.00     692    85.6
 239   13:40   90.1    18    8.0   252     15.4   858.7    0.00     656    85.8
 239   13:50   89.7    16    6.2   320     12.1   858.7    0.00     652    85.8
 239   14:00   88.7    19   17.3    13     27.2   858.6    0.00     640    86.1
 239   14:10   88.0    20   22.2    24     29.1   858.2    0.00     616    86.1
 239   14:20   87.3    23   19.6    44     25.7   858.1    0.00     515    86.1
 239   14:30   86.3    24   22.0    71     28.3   857.9    0.00     552    85.9
 239   14:40   87.4    22   23.0    81     32.3   857.5    0.00     522    85.7
 239   14:50   86.3    24   25.2    95     33.0   857.4    0.00     502    85.6
 239   15:00   86.8    21   25.1   104     33.7   857.2    0.00     499    85.5
 239   15:10   87.2    20   23.5    93     32.2   857.1    0.00     429    85.6
 239   15:20   87.2    20   21.3    90     28.6   857.2    0.00     419    85.6
 239   15:30   87.2    20   18.5    81     25.2   857.3    0.00     305    85.6
 239   15:40   86.6    20   15.8    69     21.5   857.3    0.00     241    85.5
 239   15:50   86.8    19   16.3    54     22.1   856.9    0.00     260    85.4
 239   16:00   87.5    18   18.8    56     26.4   856.6    0.00     340    85.4
 239   16:10   85.9    20   16.8    39     22.1   856.5    0.00     289    85.4
 239   16:20   85.0    20   13.4    55     18.0   856.5    0.00     130    85.2
 239   16:30   85.8    19   11.7    67     15.6   856.7    0.00     216    85.0
 239   16:40   86.1    18   11.8    67     15.6   856.6    0.00     227    84.9
 239   16:50   85.9    18   11.3    71     14.5   856.4    0.00     179    84.8
 239   17:00   86.0    18    9.6    66     13.7   856.3    0.00     138    84.8
 239   17:10   85.8    18   10.4    76     12.7   856.0    0.00      62    84.7
 239   17:20   85.2    18    8.2    64     11.5   856.1    0.00      25    84.5
 239   17:30   85.2    18    7.5    47     10.9   856.2    0.00      54    84.3
 239   17:40   85.1    19    9.1    24     13.1   856.4    0.00      63    84.2
 239   17:50   83.5    21   10.9    27     15.0   856.4    0.00      30    84.1
 239   18:00   82.6    22   11.5    35     15.1   856.6    0.00      29    83.7
 239   18:10   82.0    22   10.2    36     14.5   856.5    0.00      19    83.5
 239   18:20   81.4    22    9.3    34     11.9   855.8    0.00      11    83.2
 239   18:30   80.6    23    7.1    30     10.1   855.3    0.00       4    83.0
 239   18:40   79.4    24    6.7    49      7.7   855.4    0.00       2    82.7
 239   18:50   78.2    25    7.1   104      8.0   855.4    0.00       0    82.3
 239   19:00   78.0    26    4.1   112      6.4   854.8    0.00       0    82.1
 239   19:10   78.0    26    3.8   176      5.7   855.0    0.00       0    81.9
 239   19:20   77.3    26    2.9   168      4.5   855.2    0.00       0    81.7
 239   19:30   75.8    27    3.6   312      6.6   855.2    0.00       0    81.5
 239   19:40   73.7    33    5.5     6      8.8   855.0    0.00       0    81.1
 239   19:50   73.2    35    4.4     1      6.0   854.8    0.00       0    80.7
 239   20:00   72.7    36    3.4    82      7.8   855.3    0.00       0    80.5
 239   20:10   73.5    37    2.6   128      5.8   856.0    0.00       0    80.2
 239   20:20   73.7    37    1.6   127      3.3   856.1    0.00       0    80.1
 239   20:30   72.8    36    3.1   142      4.5   855.1    0.00       0    79.8
 239   20:40   71.1    33    4.2   180      5.6   855.4    0.00       0    79.6
 239   20:50   69.8    33    4.0   207      5.4   856.1    0.00       0    79.3
 239   21:00   69.4    35    5.8   187      6.9   855.1    0.00       0    79.0
 239   21:10   69.8    35    5.8   189      6.7   855.1    0.00       0    78.8
 239   21:20   69.1    36    6.1   180      7.3   855.7    0.00       0    78.6
 239   21:30   69.2    36    6.2   176      7.0   855.8    0.00       0    78.4
 239   21:40   69.3    34    6.2   173      7.0   855.6    0.00       0    78.2
 239   21:50   69.5    33    5.4   156      6.9   855.5    0.00       0    78.0
 239   22:00   69.4    34    3.0   176      7.9   855.4    0.00       0    77.9
 239   22:10   68.7    35    3.3   356      9.1   855.3    0.00       0    77.7
 239   22:20   65.9    40    4.0   316      7.8   855.2    0.00       0    77.3
 239   22:30   64.7    41    1.0   330      2.2   854.8    0.00       0    77.0
 239   22:40   64.3    41    0.5   315      1.9   854.5    0.00       0    76.7
 239   22:50   64.0    42    1.8   105      4.3   853.9    0.00       0    76.3
 239   23:00   65.1    41    0.7   198      2.5   853.5    0.00       0    76.1
 239   23:10   65.4    39    2.6   227      3.7   853.9    0.00       0    76.1
 239   23:20   66.7    40    2.9   261      4.2   854.0    0.00       0    76.0
 239   23:30   67.2    38    1.7   291      3.2   854.3    0.00       0    76.0
 239   23:40   66.3    40    3.2   319      4.3   854.5    0.00       0    75.8
 239   23:50   65.4    40    3.2    64      6.9   854.5    0.00       0    75.7
 240    0:00   63.0    42    5.0    70      6.7   854.4    0.00       0    75.1
 240    0:10   62.9    42    3.8    68      5.7   854.7    0.00       0    74.8
 240    0:20   64.1    40    3.2   127      5.7   854.8    0.00       0    74.7
 240    0:30   65.0    39    5.0   156      5.8   854.9    0.00       0    74.5
 240    0:40   63.4    40    4.6   178      5.8   854.8    0.00       0    74.4
 240    0:50   63.0    42    5.3   178      6.9   854.5    0.00       0    74.3
 240    1:00   63.5    41    5.4   177      7.5   854.2    0.00       0    74.1
 240    1:10   63.7    41    4.2   170      5.9   854.0    0.00       0    74.0
 240    1:20   63.0    42    3.5   171      5.6   854.2    0.00       0    73.9
 240    1:30   59.8    45    5.7   315      6.9   854.5    0.00       0    73.7
 240    1:40   58.3    50    3.7   317      7.7   854.1    0.00       0    73.2
 240    1:50   58.3    52    1.7   216      3.1   853.7    0.00       0    73.0
 240    2:00   58.1    53    4.3   197      5.8   853.2    0.00       0    72.8
 240    2:10   58.2    53    6.3   193      7.6   853.2    0.00       0    72.5
 240    2:20   59.0    52    6.8   189      7.8   853.1    0.00       0    72.3
 240    2:30   59.9    52    6.5   184      7.7   853.1    0.00       0    72.2
 240    2:40   60.1    50    5.2   187      6.1   853.2    0.00       0    72.1
 240    2:50   60.2    49    4.6   198      5.6   853.2    0.00       0    72.2
 240    3:00   60.1    49    4.2   205      4.7   853.2    0.00       0    72.1
 240    3:10   59.7    49    3.3   202      4.0   853.2    0.00       0    72.1
 240    3:20   59.6    49    3.5   207      4.1   853.2    0.00       0    71.8
 240    3:30   59.6    49    3.2   204      4.4   853.2    0.00       0    71.8
 240    3:40   59.6    49    4.5   178      5.3   853.2    0.00       0    71.5
 240    3:50   60.0    48    4.1   178      5.0   853.3    0.00       0    71.2
 240    4:00   59.6    49    2.9   180      3.7   853.4    0.00       0    71.3
 240    4:10   59.7    49    2.0   175      3.5   853.5    0.00       0    71.2
 240    4:20   59.6    49    0.6   152      1.8   853.4    0.00       0    71.1
 240    4:30   58.2    50    1.7    61      2.6   853.4    0.00       0    70.9
 240    4:40   56.3    52    2.6    40      3.3   853.6    0.00       0    70.5
 240    4:50   56.4    54    1.7   344      2.6   853.4    0.00       0    70.3
 240    5:00   57.4    52    0.7   308      1.8   853.3    0.00       0    70.2
 240    5:10   57.6    52    0.8   250      2.5   852.8    0.00       2    70.2
 240    5:20   57.4    52    0.8   269      2.5   852.7    0.00       3    70.2
 240    5:30   57.0    52    0.0     0      0.0   852.8    0.00       8    70.1
 240    5:40   57.4    53    0.3   197      1.1   852.9    0.00      23    70.1
 240    5:50   58.1    55    2.3   239      4.5   853.0    0.00      41    70.3
 240    6:00   58.7    54    3.7   230      5.1   853.1    0.00      66    70.6
 240    6:10   59.3    53    2.8   265      4.4   853.2    0.00      89    70.9
 240    6:20   59.1    54    1.9   288      3.4   853.5    0.00     115    71.2
 240    6:30   58.8    54    2.4   328      3.7   853.7    0.00     140    71.5
 240    6:40   60.0    52    1.0   349      2.7   853.9    0.00     164    71.3
 240    6:50   62.5    48    1.6   162      3.5   854.0    0.00     189    71.4
 240    7:00   61.9    50    4.1   200      6.2   854.1    0.00     215    72.1
 240    7:10   64.1    47    3.9   223      6.1   854.4    0.00     240    72.9
 240    7:20   66.6    42    3.5   232      6.1   855.5    0.00     265    73.7
 240    7:30   68.3    38    3.9   231      5.6   855.3    0.00     289    74.6
 240    7:40   69.9    37    2.6   230      4.7   855.4    0.00     312    75.5
 240    7:50   71.5    35    2.7   247      4.4   855.8    0.00     335    76.3
 240    8:00   72.5    34    2.7   256      4.5   856.5    0.00     357    77.1
 240    8:10   73.5    33    2.5   284      4.4   856.9    0.00     380    77.7
 240    8:20   73.9    33    1.7   294      3.4   857.3    0.00     402    78.4
 240    8:30   75.7    32    1.5   314      3.2   857.4    0.00     422    79.1
 240    8:40   77.3    30    1.5   296      3.6   857.7    0.00     441    79.8
 240    8:50   79.1    28    0.6   284      2.9   857.7    0.00     462    80.5
 240    9:00   81.0    26    0.6   265      2.6   857.8    0.00     481    81.3
 240    9:10   81.5    25    1.6    58      4.6   857.7    0.00     498    82.0
 240    9:20   82.3    24    1.5    50      3.7   857.5    0.00     518    82.5

Return to St. George, Utah graphs page.


Western Regional Climate Center,wrcc@dri.edu